Time;durP1;ratioP1;P1;durP2;ratioP2;P2;SDS_P1;SDS_P2;PMS_P1;PMS_P2;Temp;Humidity;BMP_temperature;BMP_pressure;BME280_temperature;BME280_humidity;BME280_pressure;Samples;Min_cycle;Max_cycle;Signal;HPM_P1;HPM_P2
2023/03/16 00:00:55;;;;;;;20.30;14.60;;;;;;;6.30;70.26;101704.19;5059059;28;20036;-40
2023/03/16 00:03:21;;;;;;;19.05;14.13;;;;;;;6.41;71.02;101700.47;5035639;28;20041;-41
2023/03/16 00:05:51;;;;;;;19.60;14.48;;;;;;;6.41;69.77;101694.97;5034789;28;20026;-41
2023/03/16 00:08:17;;;;;;;20.38;14.38;;;;;;;6.44;69.18;101691.72;5034329;28;20084;-41
2023/03/16 00:10:45;;;;;;;20.25;14.15;;;;;;;6.47;68.90;101682.13;5047293;28;20115;-42
2023/03/16 00:13:13;;;;;;;20.50;13.98;;;;;;;6.49;69.62;101689.03;5037744;28;20040;-41
2023/03/16 00:15:39;;;;;;;19.90;14.00;;;;;;;6.53;69.88;101675.59;5042138;28;20098;-41
2023/03/16 00:18:04;;;;;;;19.73;14.02;;;;;;;6.55;68.84;101684.41;5058162;28;20029;-41
2023/03/16 00:20:29;;;;;;;18.98;13.73;;;;;;;6.55;69.56;101684.41;5036284;28;20132;-41
2023/03/16 00:22:55;;;;;;;19.90;14.18;;;;;;;6.51;69.22;101688.78;5040205;28;20041;-41
2023/03/16 00:25:20;;;;;;;20.13;14.18;;;;;;;6.50;69.35;101687.94;5035032;28;20032;-40
2023/03/16 00:27:46;;;;;;;19.58;13.98;;;;;;;6.43;69.51;101686.47;5048354;28;20459;-42
2023/03/16 00:30:12;;;;;;;19.98;14.65;;;;;;;6.34;70.12;101678.69;5034011;28;20028;-41
2023/03/16 00:32:37;;;;;;;20.50;13.43;;;;;;;6.40;71.41;101668.56;5042320;28;20511;-41
2023/03/16 00:35:04;;;;;;;19.90;13.63;;;;;;;6.44;70.47;101672.47;5048056;28;20135;-41
2023/03/16 00:37:31;;;;;;;19.40;13.68;;;;;;;6.40;69.87;101674.06;5035593;28;20114;-41
2023/03/16 00:39:57;;;;;;;19.50;13.68;;;;;;;6.46;70.72;101664.81;5038736;28;20043;-41
2023/03/16 00:42:28;;;;;;;19.55;13.60;;;;;;;6.43;69.87;101661.72;5045110;28;20032;-41
2023/03/16 00:44:57;;;;;;;20.65;14.05;;;;;;;6.42;70.18;101657.34;5046414;28;20053;-41
2023/03/16 00:47:25;;;;;;;19.38;13.70;;;;;;;6.31;70.12;101648.13;5052807;28;20488;-39
2023/03/16 00:49:51;;;;;;;21.63;14.02;;;;;;;6.34;70.42;101651.19;5036941;28;20036;-38
2023/03/16 00:52:16;;;;;;;20.83;14.18;;;;;;;6.42;71.02;101652.66;5044461;28;20076;-38
2023/03/16 00:54:43;;;;;;;20.90;14.05;;;;;;;6.50;71.39;101645.88;5034507;28;20112;-39
2023/03/16 00:57:10;;;;;;;19.90;14.02;;;;;;;6.49;71.48;101633.22;5065155;28;20057;-41
2023/03/16 00:59:37;;;;;;;20.52;14.48;;;;;;;6.54;70.56;101644.25;5033523;28;20499;-41
2023/03/16 01:02:04;;;;;;;19.63;14.30;;;;;;;6.50;70.09;101637.63;5041826;28;20034;-41
2023/03/16 01:04:31;;;;;;;19.63;14.15;;;;;;;6.49;69.84;101630.47;5033290;28;20104;-41
2023/03/16 01:06:56;;;;;;;20.58;14.45;;;;;;;6.49;70.17;101627.72;5048610;28;20025;-41
2023/03/16 01:09:21;;;;;;;19.63;14.07;;;;;;;6.47;70.46;101616.16;5033301;28;20035;-42
2023/03/16 01:11:50;;;;;;;20.38;13.93;;;;;;;6.57;71.41;101619.00;5050182;28;20480;-43
2023/03/16 01:14:15;;;;;;;20.90;13.93;;;;;;;6.51;70.25;101617.31;5040696;28;20030;-39
2023/03/16 01:16:44;;;;;;;21.33;14.00;;;;;;;6.52;69.96;101621.69;5064607;28;20035;-39
2023/03/16 01:19:11;;;;;;;20.75;14.07;;;;;;;6.45;70.66;101612.81;5033228;28;20033;-39
2023/03/16 01:21:37;;;;;;;20.75;14.35;;;;;;;6.42;70.75;101605.94;5041623;28;20346;-39
2023/03/16 01:24:03;;;;;;;21.35;14.27;;;;;;;6.37;71.54;101603.16;5025225;28;20037;-39
2023/03/16 01:26:28;;;;;;;21.48;14.43;;;;;;;6.28;70.78;101602.78;5066342;28;20483;-39
2023/03/16 01:28:54;;;;;;;20.45;14.50;;;;;;;6.27;71.27;101601.09;5038673;28;20032;-39
2023/03/16 01:31:19;;;;;;;20.80;14.63;;;;;;;6.17;71.61;101601.84;5041108;28;20073;-39
2023/03/16 01:33:44;;;;;;;19.42;14.05;;;;;;;6.11;72.09;101602.03;5031007;28;20045;-40
2023/03/16 01:36:15;;;;;;;21.02;14.73;;;;;;;6.03;72.43;101587.69;5053497;28;20065;-40
2023/03/16 01:38:42;;;;;;;20.00;13.77;;;;;;;6.06;73.10;101594.56;5043168;28;20037;-39
2023/03/16 01:41:08;;;;;;;20.42;14.13;;;;;;;6.05;72.92;101590.97;5051714;28;20024;-39
2023/03/16 01:43:36;;;;;;;20.40;13.93;;;;;;;6.03;72.43;101592.31;5061876;28;20124;-39
2023/03/16 01:46:04;;;;;;;20.75;14.05;;;;;;;6.04;74.30;101583.84;5046075;28;20104;-40
2023/03/16 01:48:48;;;;;;;19.92;13.93;;;;;;;6.06;72.71;101591.81;5047154;28;20033;-40
2023/03/16 01:51:20;;;;;;;20.92;14.23;;;;;;;6.00;72.56;101585.44;5040962;28;20041;-39
2023/03/16 01:53:47;;;;;;;20.63;14.35;;;;;;;6.01;73.67;101591.75;5038631;28;20051;-40
2023/03/16 01:56:17;;;;;;;21.35;13.75;;;;;;;5.97;72.86;101572.19;5061995;28;20387;-39
2023/03/16 01:58:44;;;;;;;19.63;13.95;;;;;;;6.05;73.45;101588.22;5053319;28;20507;-41
2023/03/16 02:01:11;;;;;;;19.67;14.07;;;;;;;6.09;72.80;101580.31;5055595;28;20060;-41
2023/03/16 02:03:38;;;;;;;19.90;13.82;;;;;;;6.05;72.80;101574.50;5031995;28;20080;-39
2023/03/16 02:06:11;;;;;;;20.88;13.93;;;;;;;6.11;73.06;101577.31;5040312;28;20037;-40
2023/03/16 02:08:38;;;;;;;20.85;14.20;;;;;;;6.15;72.38;101575.69;5051043;28;20024;-40
2023/03/16 02:11:06;;;;;;;20.52;14.38;;;;;;;6.20;72.88;101564.78;5050786;28;20032;-41
2023/03/16 02:13:35;;;;;;;20.40;14.55;;;;;;;6.25;72.66;101562.06;5055146;28;20059;-42
2023/03/16 02:16:03;;;;;;;19.48;13.90;;;;;;;6.27;74.02;101559.88;5065216;28;20461;-41
2023/03/16 02:18:28;;;;;;;19.92;13.98;;;;;;;6.39;74.68;101555.06;5041399;28;20040;-40
2023/03/16 02:21:18;;;;;;;21.27;14.05;;;;;;;6.41;72.09;101554.81;5038077;28;20048;-41
2023/03/16 02:23:44;;;;;;;19.50;14.02;;;;;;;6.32;72.64;101537.97;5032171;28;20029;-41
2023/03/16 02:26:15;;;;;;;20.20;14.35;;;;;;;6.38;71.98;101531.44;5046535;28;20082;-41
2023/03/16 02:28:53;;;;;;;21.58;13.77;;;;;;;6.36;72.37;101530.84;5064197;28;20033;-41
2023/03/16 02:31:21;;;;;;;19.80;13.88;;;;;;;6.40;73.58;101526.50;5045704;28;20036;-41
2023/03/16 02:33:47;;;;;;;20.45;14.07;;;;;;;6.44;74.35;101537.78;5031668;28;20021;-42
2023/03/16 02:36:13;;;;;;;19.90;14.15;;;;;;;6.43;73.41;101540.78;5046718;28;20107;-41
2023/03/16 02:38:39;;;;;;;19.63;13.93;;;;;;;6.45;73.44;101535.88;5060174;28;20025;-42
2023/03/16 02:41:19;;;;;;;20.17;13.93;;;;;;;6.46;75.19;101538.38;5039483;28;20029;-40
2023/03/16 02:44:02;;;;;;;19.88;13.57;;;;;;;6.49;75.21;101556.25;5031911;28;20029;-41
2023/03/16 02:46:34;;;;;;;20.92;13.80;;;;;;;6.53;74.61;101549.13;5041267;28;20048;-41
2023/03/16 02:49:23;;;;;;;20.00;13.15;;;;;;;6.53;74.35;101549.13;5037771;28;20030;-41
2023/03/16 02:51:49;;;;;;;20.73;13.95;;;;;;;6.56;74.74;101546.69;5049927;28;20051;-40
2023/03/16 02:54:15;;;;;;;19.70;13.55;;;;;;;6.64;74.80;101545.38;5051634;28;20446;-41
2023/03/16 02:56:41;;;;;;;19.15;13.02;;;;;;;6.61;74.29;101536.84;5051706;28;20037;-40
2023/03/16 02:59:06;;;;;;;20.40;13.70;;;;;;;6.54;74.03;101531.53;5041737;28;20033;-40
2023/03/16 03:01:33;;;;;;;19.48;13.20;;;;;;;6.60;74.83;101530.50;5052447;28;20032;-40
2023/03/16 03:04:00;;;;;;;19.70;13.45;;;;;;;6.56;74.65;101540.38;5036104;28;20068;-40
2023/03/16 03:06:25;;;;;;;20.20;13.52;;;;;;;6.59;75.47;101531.59;5042503;28;20048;-40
2023/03/16 03:08:50;;;;;;;20.30;13.68;;;;;;;6.61;75.50;101528.59;5044081;28;20380;-40
2023/03/16 03:11:18;;;;;;;19.90;13.55;;;;;;;6.63;75.12;101531.91;5041311;28;20163;-41
2023/03/16 03:13:44;;;;;;;20.00;12.95;;;;;;;6.65;76.52;101526.97;5037493;28;20460;-40
2023/03/16 03:16:09;;;;;;;19.90;13.23;;;;;;;6.64;75.91;101525.31;5054753;28;20423;-41
2023/03/16 03:18:35;;;;;;;19.42;13.18;;;;;;;6.63;75.99;101529.16;5046424;28;20060;-41
2023/03/16 03:21:00;;;;;;;19.45;13.20;;;;;;;6.56;75.08;101519.19;5047261;28;20377;-41
2023/03/16 03:23:26;;;;;;;19.70;12.60;;;;;;;6.60;76.68;101525.03;5039662;28;20112;-40
2023/03/16 03:25:51;;;;;;;20.73;13.05;;;;;;;6.58;75.28;101518.94;5037233;28;20037;-41
2023/03/16 03:28:16;;;;;;;19.48;13.00;;;;;;;6.49;75.26;101520.53;5045129;28;20479;-40
2023/03/16 03:30:42;;;;;;;19.75;13.50;;;;;;;6.36;75.24;101503.38;5035262;28;20021;-41
2023/03/16 03:33:07;;;;;;;19.95;13.90;;;;;;;6.24;75.63;101494.44;5042562;28;20104;-40
2023/03/16 03:35:32;;;;;;;18.92;13.27;;;;;;;6.22;76.09;101499.41;5050510;28;20056;-40
2023/03/16 03:37:58;;;;;;;20.00;13.13;;;;;;;6.20;75.84;101512.56;5054497;28;20028;-42
2023/03/16 03:40:23;;;;;;;21.50;13.43;;;;;;;6.18;76.37;101507.34;5054767;28;20021;-40
2023/03/16 03:42:48;;;;;;;19.05;12.88;;;;;;;6.20;77.83;101501.56;5045759;28;20067;-40
2023/03/16 03:45:14;;;;;;;19.98;13.43;;;;;;;6.21;76.08;101497.75;5047479;28;20032;-41
2023/03/16 03:47:42;;;;;;;19.23;12.75;;;;;;;6.24;77.75;101495.31;5054569;28;20108;-40
2023/03/16 03:50:10;;;;;;;18.88;13.27;;;;;;;6.23;76.60;101503.81;5050142;28;20017;-42
2023/03/16 03:52:35;;;;;;;20.05;13.77;;;;;;;6.29;76.55;101501.91;5041678;28;20403;-41
2023/03/16 03:55:00;;;;;;;19.73;13.40;;;;;;;6.31;76.07;101497.84;5045069;28;20160;-41
2023/03/16 03:57:25;;;;;;;19.45;13.07;;;;;;;6.29;76.75;101493.66;5053980;28;20127;-41
2023/03/16 03:59:51;;;;;;;20.17;13.40;;;;;;;6.28;76.61;101501.09;5037549;28;20025;-41
2023/03/16 04:02:16;;;;;;;21.00;13.18;;;;;;;6.34;75.86;101489.06;5044860;28;20476;-41
2023/03/16 04:04:42;;;;;;;18.70;12.48;;;;;;;6.35;75.71;101489.91;5047425;28;20018;-40
2023/03/16 04:07:08;;;;;;;19.92;12.95;;;;;;;6.36;75.15;101486.06;5044642;28;20476;-41
2023/03/16 04:09:34;;;;;;;19.48;12.80;;;;;;;6.35;75.51;101485.22;5039563;28;20029;-41
2023/03/16 04:12:00;;;;;;;19.60;12.48;;;;;;;6.39;76.32;101483.63;5052457;28;20036;-41
2023/03/16 04:14:26;;;;;;;20.40;13.02;;;;;;;6.49;76.32;101482.03;5065343;28;20075;-40
2023/03/16 04:16:53;;;;;;;19.00;12.23;;;;;;;6.51;75.48;101479.84;5049834;28;20107;-40
2023/03/16 04:19:19;;;;;;;19.70;12.82;;;;;;;6.50;75.03;101489.19;5051055;28;20053;-42
2023/03/16 04:21:44;;;;;;;19.63;13.32;;;;;;;6.46;74.66;101490.78;5040173;28;20033;-41
2023/03/16 04:24:13;;;;;;;19.80;13.55;;;;;;;6.38;74.67;101484.69;5032353;28;20038;-41
2023/03/16 04:26:39;;;;;;;18.98;13.15;;;;;;;6.26;75.31;101478.53;5039249;28;20032;-41
2023/03/16 04:29:05;;;;;;;19.38;12.95;;;;;;;6.19;75.37;101478.75;5044842;28;20078;-42
2023/03/16 04:31:30;;;;;;;17.50;12.43;;;;;;;6.23;76.82;101474.41;5046337;28;20664;-40
2023/03/16 04:33:55;;;;;;;19.73;13.32;;;;;;;6.19;75.77;101475.19;5038100;28;20079;-42
2023/03/16 04:36:23;;;;;;;19.67;12.70;;;;;;;6.12;76.07;101471.84;5036392;28;20033;-40
2023/03/16 04:38:50;;;;;;;19.35;12.35;;;;;;;6.09;76.59;101481.44;5047533;28;20026;-40
2023/03/16 04:41:16;;;;;;;19.85;13.00;;;;;;;6.13;76.40;101481.72;5034925;28;20079;-40
2023/03/16 04:43:42;;;;;;;20.77;13.27;;;;;;;6.14;75.84;101467.72;5053541;28;20184;-41
2023/03/16 04:46:07;;;;;;;19.23;12.73;;;;;;;6.05;76.12;101472.84;5036710;28;20473;-41
2023/03/16 04:48:33;;;;;;;18.55;13.07;;;;;;;6.01;76.66;101479.13;5049710;28;20033;-40
2023/03/16 04:51:00;;;;;;;20.08;13.15;;;;;;;5.95;77.53;101481.00;5033593;28;20040;-41
2023/03/16 04:53:25;;;;;;;20.10;13.43;;;;;;;5.91;76.70;101472.41;5041314;28;20036;-40
2023/03/16 04:55:51;;;;;;;19.85;13.05;;;;;;;5.88;77.21;101467.47;5033497;28;20037;-41
2023/03/16 04:58:16;;;;;;;19.60;13.07;;;;;;;5.89;77.36;101473.78;5050888;28;20033;-40
2023/03/16 05:00:44;;;;;;;19.00;12.93;;;;;;;5.92;77.56;101481.50;5068987;28;20091;-40
2023/03/16 05:03:10;;;;;;;19.38;13.02;;;;;;;5.94;77.52;101469.16;5053726;28;20065;-39
2023/03/16 05:05:38;;;;;;;18.88;13.20;;;;;;;5.94;77.09;101468.34;5041797;28;20061;-39
2023/03/16 05:08:05;;;;;;;19.27;12.90;;;;;;;6.04;77.67;101460.25;5047951;28;20025;-39
2023/03/16 05:10:31;;;;;;;19.10;12.75;;;;;;;5.99;76.82;101457.44;5036461;28;20025;-40
2023/03/16 05:12:57;;;;;;;20.33;13.52;;;;;;;5.97;77.51;101458.75;5052701;28;20029;-40
2023/03/16 05:15:22;;;;;;;18.50;12.90;;;;;;;6.00;77.35;101453.59;5043982;28;20038;-40
2023/03/16 05:17:47;;;;;;;19.08;13.00;;;;;;;5.99;77.46;101449.19;5044591;28;20060;-40
2023/03/16 05:20:14;;;;;;;19.25;12.73;;;;;;;6.07;78.80;101447.91;5033784;28;20056;-40
2023/03/16 05:22:41;;;;;;;18.77;12.88;;;;;;;6.06;78.21;101444.31;5063253;28;20107;-40
2023/03/16 05:25:07;;;;;;;19.70;12.55;;;;;;;6.20;77.49;101441.94;5058945;28;20025;-41
2023/03/16 05:27:33;;;;;;;20.13;13.30;;;;;;;6.26;76.60;101450.25;5042478;28;20044;-42
2023/03/16 05:30:00;;;;;;;20.23;14.02;;;;;;;6.27;76.60;101446.41;5053005;28;20028;-40
2023/03/16 05:32:25;;;;;;;19.90;13.23;;;;;;;6.22;77.06;101438.97;5044009;28;20039;-40
2023/03/16 05:34:52;;;;;;;20.52;13.15;;;;;;;6.17;77.51;101431.50;5052694;28;20455;-40
2023/03/16 05:37:18;;;;;;;19.50;13.05;;;;;;;6.24;77.04;101440.34;5052421;28;20548;-40
2023/03/16 05:39:43;;;;;;;18.60;12.93;;;;;;;6.27;77.17;101444.47;5041800;28;20100;-40
2023/03/16 05:42:09;;;;;;;18.80;12.80;;;;;;;6.32;76.83;101447.28;5037484;28;20029;-40
2023/03/16 05:44:34;;;;;;;19.00;12.77;;;;;;;6.31;77.48;101444.78;5052308;28;20052;-41
2023/03/16 05:46:59;;;;;;;18.20;12.50;;;;;;;6.39;77.94;101439.63;5055107;28;20484;-39
2023/03/16 05:49:25;;;;;;;19.30;13.32;;;;;;;6.43;78.19;101439.09;5057060;28;20037;-39
2023/03/16 05:51:50;;;;;;;19.70;13.27;;;;;;;6.39;76.96;101436.03;5034353;28;20399;-39
2023/03/16 05:54:16;;;;;;;20.27;13.65;;;;;;;6.33;77.11;101431.63;5037980;28;20026;-39
2023/03/16 05:56:41;;;;;;;19.48;13.43;;;;;;;6.31;77.44;101423.63;5032673;28;20034;-39
2023/03/16 05:59:06;;;;;;;20.17;13.23;;;;;;;6.33;78.66;101424.19;5047507;28;20025;-40
2023/03/16 06:01:33;;;;;;;20.48;13.70;;;;;;;6.35;77.28;101429.44;5032107;28;20026;-40
2023/03/16 06:03:58;;;;;;;19.45;13.60;;;;;;;6.31;78.25;101428.28;5040032;28;20030;-40
2023/03/16 06:06:24;;;;;;;20.13;13.73;;;;;;;6.23;78.13;101433.19;5045821;28;20376;-40
2023/03/16 06:08:49;;;;;;;19.05;13.70;;;;;;;6.23;78.21;101430.44;5049904;28;20044;-40
2023/03/16 06:11:15;;;;;;;19.73;13.80;;;;;;;6.22;78.83;101427.97;5037078;28;20754;-40
2023/03/16 06:13:40;;;;;;;20.58;13.85;;;;;;;6.21;78.14;101429.88;5039196;28;20029;-39
2023/03/16 06:16:06;;;;;;;20.00;13.40;;;;;;;6.18;78.28;101432.31;5032128;28;20477;-41
2023/03/16 06:18:33;;;;;;;18.98;13.38;;;;;;;6.16;78.59;101435.34;5046872;28;20029;-41
2023/03/16 06:20:58;;;;;;;19.77;13.20;;;;;;;6.15;78.58;101430.94;5033037;28;20047;-40
2023/03/16 06:23:24;;;;;;;20.08;13.02;;;;;;;6.12;78.83;101428.69;5050499;28;20018;-40
2023/03/16 06:25:49;;;;;;;20.13;12.80;;;;;;;6.22;78.84;101427.97;5041032;28;20112;-39
2023/03/16 06:28:15;;;;;;;20.80;13.00;;;;;;;6.30;78.17;101427.47;5051289;28;20546;-40
2023/03/16 06:30:41;;;;;;;19.05;12.52;;;;;;;6.30;77.65;101427.47;5052077;28;20456;-40
2023/03/16 06:33:06;;;;;;;18.95;13.15;;;;;;;6.34;77.57;101441.50;5042691;28;20033;-40
2023/03/16 06:35:32;;;;;;;19.15;12.85;;;;;;;6.31;77.20;101426.38;5052049;28;20128;-40
2023/03/16 06:37:58;;;;;;;20.02;12.90;;;;;;;6.43;77.82;101422.59;5051287;28;20029;-40
2023/03/16 06:40:23;;;;;;;19.48;12.60;;;;;;;6.44;77.40;101427.00;5038856;28;20044;-39
2023/03/16 06:42:48;;;;;;;18.60;12.45;;;;;;;6.46;78.24;101433.94;5039373;28;20021;-40
2023/03/16 06:45:15;;;;;;;18.98;12.88;;;;;;;6.46;77.86;101422.94;5048659;28;20022;-40
2023/03/16 06:47:42;;;;;;;20.85;12.82;;;;;;;6.47;78.18;101410.00;5038592;28;20095;-40
2023/03/16 06:50:09;;;;;;;20.20;12.45;;;;;;;6.56;78.15;101422.97;5050485;28;20127;-40
2023/03/16 06:52:34;;;;;;;20.27;12.90;;;;;;;6.56;78.08;101428.47;5043027;28;20028;-41
2023/03/16 06:55:00;;;;;;;19.23;12.50;;;;;;;6.69;79.50;101432.69;5034739;28;20036;-40
2023/03/16 06:57:25;;;;;;;22.38;14.13;;;;;;;6.85;79.81;101432.78;5035289;28;20029;-40
2023/03/16 06:59:50;;;;;;;19.55;12.50;;;;;;;6.99;80.58;101425.69;5044602;28;20551;-40
2023/03/16 07:02:15;;;;;;;17.88;12.32;;;;;;;7.14;78.69;101424.13;5042839;28;20067;-41
2023/03/16 07:04:41;;;;;;;19.17;12.00;;;;;;;7.19;78.38;101415.88;5037767;28;20136;-41
2023/03/16 07:07:07;;;;;;;20.80;12.75;;;;;;;7.27;78.13;101423.63;5031860;28;20409;-40
2023/03/16 07:09:33;;;;;;;18.73;12.25;;;;;;;7.35;77.43;101422.25;5036098;28;20040;-40
2023/03/16 07:11:58;;;;;;;19.83;12.55;;;;;;;7.31;76.24;101415.66;5044010;28;20465;-40
2023/03/16 07:14:25;;;;;;;18.90;12.30;;;;;;;7.27;76.82;101411.78;5039576;28;20488;-41
2023/03/16 07:16:51;;;;;;;20.50;13.52;;;;;;;7.27;77.52;101401.63;5046204;28;20144;-42
2023/03/16 07:19:17;;;;;;;19.17;12.32;;;;;;;7.31;77.46;101418.41;5047980;28;20072;-42
2023/03/16 07:21:42;;;;;;;19.08;12.73;;;;;;;7.31;76.79;101408.22;5031127;28;20018;-40
2023/03/16 07:24:09;;;;;;;20.45;12.90;;;;;;;7.31;77.10;101396.41;5041412;28;20040;-40
2023/03/16 07:26:34;;;;;;;19.05;12.90;;;;;;;7.29;77.13;101404.91;5035533;28;20029;-42
2023/03/16 07:29:00;;;;;;;20.70;12.65;;;;;;;7.30;77.64;101403.00;5040684;28;20048;-40
2023/03/16 07:31:25;;;;;;;19.20;12.70;;;;;;;7.37;77.54;101403.56;5027405;28;20038;-40
2023/03/16 07:33:51;;;;;;;19.20;12.68;;;;;;;7.42;77.25;101400.00;5033517;28;20443;-40
2023/03/16 07:36:16;;;;;;;18.70;12.52;;;;;;;7.42;77.03;101403.56;5027713;28;20396;-40
2023/03/16 07:38:41;;;;;;;19.88;13.13;;;;;;;7.44;76.65;101403.31;5049857;28;20090;-40
2023/03/16 07:41:07;;;;;;;19.23;12.93;;;;;;;7.51;77.37;101408.56;5035622;28;20026;-40
2023/03/16 07:43:33;;;;;;;19.67;12.38;;;;;;;7.58;77.41;101403.63;5034030;28;20047;-39
2023/03/16 07:45:58;;;;;;;21.02;12.63;;;;;;;7.61;76.39;101401.13;5032623;28;20033;-39
2023/03/16 07:48:24;;;;;;;19.33;12.18;;;;;;;7.62;76.13;101404.72;5041284;28;20056;-42
2023/03/16 07:50:50;;;;;;;19.65;12.73;;;;;;;7.58;76.26;101393.41;5038258;28;20034;-42
2023/03/16 07:53:16;;;;;;;19.08;12.40;;;;;;;7.62;75.85;101399.19;5039778;28;20039;-41
2023/03/16 07:55:42;;;;;;;18.65;12.13;;;;;;;7.62;75.32;101405.56;5032431;28;20056;-41
2023/03/16 07:58:09;;;;;;;19.88;12.80;;;;;;;7.65;76.02;101406.94;5036227;28;20041;-41
2023/03/16 08:00:35;;;;;;;19.52;12.35;;;;;;;7.70;75.09;101400.59;5042984;28;20025;-42
2023/03/16 08:03:01;;;;;;;18.88;12.20;;;;;;;7.79;75.48;101397.03;5039624;28;20584;-42
2023/03/16 08:05:27;;;;;;;19.65;12.65;;;;;;;7.88;75.33;101399.25;5035366;28;20029;-42
2023/03/16 08:07:52;;;;;;;19.83;12.50;;;;;;;7.85;75.09;101395.09;5035389;28;20431;-42
2023/03/16 08:10:18;;;;;;;20.38;11.95;;;;;;;7.87;75.13;101389.34;5044698;28;20033;-41
2023/03/16 08:12:43;;;;;;;18.77;11.70;;;;;;;7.91;74.65;101391.28;5043179;28;20043;-41
2023/03/16 08:15:10;;;;;;;19.10;12.38;;;;;;;7.90;74.96;101397.03;5037930;28;20053;-42
2023/03/16 08:17:36;;;;;;;21.20;12.23;;;;;;;7.98;74.75;101391.00;5030900;28;20461;-41
2023/03/16 08:20:09;;;;;;;18.55;12.05;;;;;;;8.07;73.98;101388.50;5046764;28;20076;-42
2023/03/16 08:22:35;;;;;;;19.77;12.17;;;;;;;8.06;73.90;101393.19;5032456;28;20080;-42
2023/03/16 08:25:04;;;;;;;18.67;11.95;;;;;;;8.08;73.35;101390.16;5039188;28;20373;-41
2023/03/16 08:27:30;;;;;;;19.60;12.27;;;;;;;8.20;73.33;101392.63;5060506;28;20085;-42
2023/03/16 08:29:56;;;;;;;18.45;11.38;;;;;;;8.27;72.92;101390.41;5047462;28;20034;-42
2023/03/16 08:32:21;;;;;;;20.08;12.00;;;;;;;8.30;73.16;101384.34;5031725;28;20033;-41
2023/03/16 08:34:47;;;;;;;19.00;11.52;;;;;;;8.40;72.78;101397.31;5039037;28;20396;-41
2023/03/16 08:37:13;;;;;;;19.27;12.10;;;;;;;8.45;71.08;101393.72;5032081;28;20029;-41
2023/03/16 08:39:40;;;;;;;18.60;12.10;;;;;;;8.46;72.31;101403.63;5047387;28;20072;-41
2023/03/16 08:42:06;;;;;;;19.02;12.15;;;;;;;8.51;71.16;101403.66;5029958;28;20022;-40
2023/03/16 08:44:32;;;;;;;17.80;11.80;;;;;;;8.60;71.14;101392.91;5038749;28;20069;-40
2023/03/16 08:46:58;;;;;;;18.58;11.52;;;;;;;8.62;70.19;101394.28;5030043;28;20067;-41
2023/03/16 08:49:24;;;;;;;18.17;11.32;;;;;;;8.69;70.71;101399.50;5044968;28;20112;-40
2023/03/16 08:51:50;;;;;;;17.27;10.80;;;;;;;8.79;70.52;101401.38;5038342;28;20496;-40
2023/03/16 08:54:16;;;;;;;19.60;11.73;;;;;;;8.78;69.96;101394.22;5038712;28;20026;-40
2023/03/16 08:56:42;;;;;;;19.45;11.70;;;;;;;8.84;70.23;101406.88;5030864;28;20111;-40
2023/03/16 08:59:07;;;;;;;19.63;12.20;;;;;;;8.88;70.23;101385.91;5040348;28;20036;-40
2023/03/16 09:01:33;;;;;;;18.75;11.77;;;;;;;8.88;69.02;101381.19;5034473;28;20033;-40
2023/03/16 09:03:59;;;;;;;17.90;11.68;;;;;;;8.98;68.83;101388.63;5037991;28;20029;-41
2023/03/16 09:06:25;;;;;;;17.55;11.38;;;;;;;9.03;68.68;101380.31;5031310;28;20030;-41
2023/03/16 09:08:50;;;;;;;18.27;11.60;;;;;;;9.07;68.84;101375.06;5038946;28;20087;-41
2023/03/16 09:11:17;;;;;;;19.35;11.95;;;;;;;9.13;69.00;101375.84;5038922;28;20502;-40
2023/03/16 09:13:43;;;;;;;18.85;11.70;;;;;;;9.20;68.46;101377.22;5037328;28;20057;-40
2023/03/16 09:16:10;;;;;;;19.80;11.82;;;;;;;9.21;67.73;101376.09;5037446;28;20143;-40
2023/03/16 09:18:36;;;;;;;16.42;11.18;;;;;;;9.19;67.36;101363.72;5036084;28;20033;-40
2023/03/16 09:21:05;;;;;;;18.00;11.80;;;;;;;9.29;68.45;101371.09;5040750;28;20056;-41
2023/03/16 09:23:31;;;;;;;17.73;11.38;;;;;;;9.30;67.97;101370.81;5035080;28;20100;-40
2023/03/16 09:26:00;;;;;;;18.77;12.00;;;;;;;9.32;67.78;101365.81;5033718;28;20029;-41
2023/03/16 09:28:26;;;;;;;18.52;11.77;;;;;;;9.41;66.52;101374.34;5034007;28;20102;-41
2023/03/16 09:30:55;;;;;;;17.67;11.75;;;;;;;9.45;67.02;101369.88;5042901;28;20109;-40
2023/03/16 09:33:23;;;;;;;19.33;11.43;;;;;;;9.51;66.79;101368.75;5031633;28;20726;-41
2023/03/16 09:35:49;;;;;;;17.85;11.32;;;;;;;9.59;67.50;101353.50;5035257;28;20461;-40
2023/03/16 09:38:15;;;;;;;17.95;10.95;;;;;;;9.67;67.06;101355.69;5031837;28;20036;-40
2023/03/16 09:40:40;;;;;;;16.67;11.00;;;;;;;9.79;66.78;101352.53;5044699;28;20034;-41
2023/03/16 09:43:17;;;;;;;18.38;11.35;;;;;;;9.86;66.05;101349.44;5028769;28;20021;-40
2023/03/16 09:46:04;;;;;;;18.70;11.98;;;;;;;9.90;66.83;101358.81;5030290;28;20033;-41
2023/03/16 09:48:34;;;;;;;16.88;11.20;;;;;;;10.01;65.80;101354.03;5033026;28;20414;-41
2023/03/16 09:51:03;;;;;;;18.13;11.18;;;;;;;10.08;65.53;101359.19;5041047;28;20033;-42
2023/03/16 09:53:33;;;;;;;19.77;12.00;;;;;;;10.03;65.86;101348.19;5041956;28;20037;-41
2023/03/16 09:56:04;;;;;;;16.17;10.82;;;;;;;10.12;65.04;101355.56;5034655;28;20037;-41
2023/03/16 09:58:31;;;;;;;16.65;10.57;;;;;;;10.20;64.91;101364.38;5032216;28;20132;-41
2023/03/16 10:01:16;;;;;;;17.33;10.82;;;;;;;10.29;64.83;101348.78;5048999;28;20028;-42
2023/03/16 10:04:16;;;;;;;16.42;11.10;;;;;;;10.35;64.52;101341.25;5061920;28;20056;-42
2023/03/16 10:06:54;;;;;;;18.00;10.95;;;;;;;10.41;64.72;101331.81;5042638;28;20041;-42
2023/03/16 10:09:35;;;;;;;16.70;10.85;;;;;;;10.44;63.61;101332.06;5032924;28;20025;-42
2023/03/16 10:12:03;;;;;;;18.73;11.82;;;;;;;10.40;63.38;101325.44;5031460;28;20040;-42
2023/03/16 10:14:46;;;;;;;16.73;10.82;;;;;;;10.51;62.92;101325.34;5032422;28;20021;-41
2023/03/16 10:17:20;;;;;;;18.02;11.18;;;;;;;10.49;63.59;101324.81;5032700;28;20029;-41
2023/03/16 10:19:51;;;;;;;16.80;10.82;;;;;;;10.51;63.42;101322.56;5032470;28;20057;-41
2023/03/16 10:22:20;;;;;;;16.25;10.82;;;;;;;10.53;63.16;101314.81;5040360;28;20428;-41
2023/03/16 10:24:54;;;;;;;17.20;10.70;;;;;;;10.56;63.71;101317.00;5066706;28;20028;-41
2023/03/16 10:27:27;;;;;;;18.02;11.40;;;;;;;10.56;63.08;101311.47;5072176;28;20028;-41
2023/03/16 10:29:52;;;;;;;17.08;10.45;;;;;;;10.64;62.40;101309.97;5067179;28;20464;-41
2023/03/16 10:32:18;;;;;;;18.67;10.40;;;;;;;10.74;62.44;101313.47;5052228;28;20035;-41
2023/03/16 10:34:51;;;;;;;15.55;10.32;;;;;;;10.83;62.04;101319.13;5052032;28;20025;-41
2023/03/16 10:37:17;;;;;;;19.20;11.40;;;;;;;10.88;61.49;101313.56;5052216;28;20108;-41
2023/03/16 10:39:42;;;;;;;16.70;10.35;;;;;;;10.88;60.90;101302.47;5050727;28;20438;-41
2023/03/16 10:42:20;;;;;;;17.33;11.10;;;;;;;10.93;61.58;101307.94;5042959;28;20029;-42
2023/03/16 10:44:46;;;;;;;16.35;10.73;;;;;;;11.06;61.19;101311.09;5047779;28;20033;-41
2023/03/16 10:47:17;;;;;;;17.45;10.60;;;;;;;10.97;61.13;101282.44;5050839;28;20223;-41
2023/03/16 10:49:47;;;;;;;15.50;10.30;;;;;;;11.20;60.98;101295.38;5052217;28;20044;-41
2023/03/16 10:52:36;;;;;;;15.60;10.63;;;;;;;11.24;59.43;101293.66;5052197;28;20037;-43
2023/03/16 10:55:09;;;;;;;17.55;10.23;;;;;;;11.32;59.68;101294.09;5052199;28;20040;-42
2023/03/16 10:57:36;;;;;;;;;;;;;;;11.41;61.04;101291.50;5052576;28;20036;-42
2023/03/16 11:00:19;;;;;;;15.52;10.45;;;;;;;11.47;59.29;101280.03;5051990;28;19955;-42
2023/03/16 11:02:46;;;;;;;16.83;10.70;;;;;;;11.61;58.35;101282.03;5052184;28;20040;-42
2023/03/16 11:05:29;;;;;;;15.50;10.60;;;;;;;11.67;58.31;101278.03;5052000;28;20029;-42
2023/03/16 11:08:01;;;;;;;15.20;10.53;;;;;;;11.78;58.53;101287.00;5050615;28;20535;-40
2023/03/16 11:10:35;;;;;;;16.63;10.55;;;;;;;11.89;59.21;101271.00;5051819;28;20025;-40
2023/03/16 11:13:14;;;;;;;17.77;11.18;;;;;;;11.82;57.55;101255.59;5050420;28;20388;-40
2023/03/16 11:15:49;;;;;;;14.52;9.95;;;;;;;12.05;56.61;101268.81;5052337;28;20029;-41
2023/03/16 11:18:26;;;;;;;17.05;10.50;;;;;;;12.05;55.56;101264.09;5052067;28;20064;-41